createdAt,value
2023-05-10T00:01:08.857Z,12.57
2023-05-10T00:03:35.842Z,12.51
2023-05-10T00:06:02.973Z,12.46
2023-05-10T00:08:29.739Z,12.51
2023-05-10T00:10:56.789Z,12.59
2023-05-10T00:13:23.606Z,12.55
2023-05-10T00:15:50.516Z,12.51
2023-05-10T00:18:17.392Z,12.47
2023-05-10T00:20:44.237Z,12.39
2023-05-10T00:23:11.171Z,12.43
2023-05-10T00:25:37.937Z,12.46
2023-05-10T00:28:04.955Z,12.46
2023-05-10T00:30:32.053Z,12.47
2023-05-10T00:32:58.972Z,12.50
2023-05-10T00:35:27.185Z,12.56
2023-05-10T00:37:54.154Z,12.54
2023-05-10T00:40:21.828Z,12.47
2023-05-10T00:42:51.669Z,12.51
2023-05-10T00:45:18.550Z,12.51
2023-05-10T00:47:45.439Z,12.50
2023-05-10T00:50:12.521Z,12.52
2023-05-10T00:52:39.578Z,12.50
2023-05-10T00:55:07.345Z,12.48
2023-05-10T00:57:34.222Z,12.45
2023-05-10T01:00:01.373Z,12.39
2023-05-10T01:02:28.459Z,12.32
2023-05-10T01:04:57.488Z,12.29
2023-05-10T01:07:24.425Z,12.27
2023-05-10T01:09:51.201Z,12.25
2023-05-10T01:12:18.537Z,11.96
2023-05-10T01:14:45.416Z,11.87
2023-05-10T01:17:12.430Z,11.83
2023-05-10T01:19:39.351Z,11.84
2023-05-10T01:22:06.156Z,11.87
2023-05-10T01:24:33.570Z,11.94
2023-05-10T01:27:00.537Z,11.97
2023-05-10T01:29:46.277Z,12.01
2023-05-10T01:32:13.067Z,12.00
2023-05-10T01:34:53.513Z,11.97
2023-05-10T01:37:26.684Z,11.96
2023-05-10T01:39:56.452Z,12.00
2023-05-10T01:42:28.595Z,12.00
2023-05-10T01:45:01.458Z,11.99
2023-05-10T01:47:32.127Z,12.01
2023-05-10T01:49:59.563Z,11.82
2023-05-10T01:52:39.006Z,11.74
2023-05-10T01:55:06.778Z,11.71
2023-05-10T01:57:36.441Z,11.74
2023-05-10T02:00:04.710Z,11.72
2023-05-10T02:02:43.384Z,11.69
2023-05-10T02:05:11.873Z,11.75
2023-05-10T02:07:38.653Z,11.74
2023-05-10T02:10:05.756Z,11.79
2023-05-10T02:12:32.817Z,11.73
2023-05-10T02:15:00.869Z,11.73
2023-05-10T02:17:27.792Z,11.82
2023-05-10T02:19:55.034Z,11.85
2023-05-10T02:22:21.871Z,11.81
2023-05-10T02:24:48.803Z,11.78
2023-05-10T02:27:15.612Z,11.75
2023-05-10T02:29:42.576Z,11.71
2023-05-10T02:32:09.987Z,11.70
2023-05-10T02:34:37.697Z,11.69
2023-05-10T02:37:04.482Z,11.61
2023-05-10T02:39:33.069Z,11.56
2023-05-10T02:41:59.965Z,11.56
2023-05-10T02:44:27.210Z,11.54
2023-05-10T02:46:57.117Z,11.51
2023-05-10T02:49:23.927Z,11.34
2023-05-10T02:51:52.453Z,11.30
2023-05-10T02:54:24.440Z,11.27
2023-05-10T02:57:09.519Z,11.33
2023-05-10T02:59:36.444Z,11.33
2023-05-10T03:02:03.373Z,11.32
2023-05-10T03:04:30.253Z,11.34
2023-05-10T03:06:57.228Z,11.30
2023-05-10T03:09:24.139Z,11.30
2023-05-10T03:12:02.055Z,11.31
2023-05-10T03:14:49.266Z,11.32
2023-05-10T03:17:17.177Z,11.30
2023-05-10T03:19:52.017Z,11.38
2023-05-10T03:22:21.579Z,11.43
2023-05-10T03:24:48.425Z,11.40
2023-05-10T03:27:15.419Z,11.50
2023-05-10T03:29:42.634Z,11.48
2023-05-10T03:32:09.607Z,11.42
2023-05-10T03:34:37.345Z,11.43
2023-05-10T03:37:04.760Z,11.55
2023-05-10T03:39:31.710Z,11.50
2023-05-10T03:41:59.180Z,11.53
2023-05-10T03:44:26.042Z,11.62
2023-05-10T03:46:53.162Z,11.70
2023-05-10T03:49:20.255Z,11.74
2023-05-10T03:51:47.607Z,11.74
2023-05-10T03:54:14.426Z,11.87
2023-05-10T03:56:41.743Z,11.99
2023-05-10T03:59:09.978Z,12.02
2023-05-10T04:01:36.854Z,12.11
2023-05-10T04:04:03.815Z,12.23
2023-05-10T04:06:32.027Z,12.30
2023-05-10T04:09:01.128Z,12.31
2023-05-10T04:11:27.935Z,12.37
2023-05-10T04:13:54.714Z,12.37
2023-05-10T04:16:21.543Z,12.44
2023-05-10T04:18:49.350Z,12.55
2023-05-10T04:21:16.136Z,12.62
2023-05-10T04:23:42.978Z,12.62
2023-05-10T04:26:09.768Z,12.66
2023-05-10T04:28:36.681Z,12.71
2023-05-10T04:31:04.109Z,12.80
2023-05-10T04:33:31.114Z,12.74
2023-05-10T04:35:57.997Z,12.68
2023-05-10T04:38:24.992Z,12.60
2023-05-10T04:40:51.885Z,12.63
2023-05-10T04:43:18.783Z,12.68
2023-05-10T04:45:45.617Z,12.69
2023-05-10T04:48:12.469Z,12.69
2023-05-10T04:50:40.125Z,12.65
2023-05-10T04:53:07.049Z,12.69
2023-05-10T04:55:34.124Z,12.77
2023-05-10T04:58:01.804Z,12.74
2023-05-10T05:00:29.885Z,12.82
2023-05-10T05:02:56.806Z,12.90
2023-05-10T05:05:23.773Z,12.95
2023-05-10T05:07:51.753Z,13.04
2023-05-10T05:10:18.808Z,13.11
2023-05-10T05:12:46.093Z,13.12
2023-05-10T05:15:12.989Z,13.17
2023-05-10T05:17:40.054Z,13.14
2023-05-10T05:20:07.146Z,13.19
2023-05-10T05:22:33.978Z,13.32
2023-05-10T05:25:01.674Z,13.49
2023-05-10T05:27:29.109Z,13.63
2023-05-10T05:29:56.400Z,13.70
2023-05-10T05:32:23.905Z,13.81
2023-05-10T05:34:50.682Z,13.93
2023-05-10T05:37:18.257Z,14.08
2023-05-10T05:39:45.201Z,14.23
2023-05-10T05:42:12.417Z,14.41
2023-05-10T05:44:39.481Z,14.60
2023-05-10T05:47:06.890Z,14.71
2023-05-10T05:49:33.887Z,14.81
2023-05-10T05:52:03.330Z,15.01
2023-05-10T05:54:30.638Z,15.14
2023-05-10T05:57:01.475Z,15.27
2023-05-10T05:59:28.778Z,15.33
2023-05-10T06:01:55.918Z,15.42
2023-05-10T06:04:22.902Z,15.60
2023-05-10T06:06:52.841Z,15.77
2023-05-10T06:09:19.982Z,15.95
2023-05-10T06:11:47.524Z,16.12
2023-05-10T06:14:14.336Z,16.28
2023-05-10T06:16:42.453Z,16.35
2023-05-10T06:19:09.645Z,16.35
2023-05-10T06:21:39.423Z,16.43
2023-05-10T06:24:07.770Z,16.52
2023-05-10T06:26:34.753Z,16.60
2023-05-10T06:29:02.440Z,16.71
2023-05-10T06:31:32.552Z,16.83
2023-05-10T06:33:59.431Z,16.74
2023-05-10T06:36:27.537Z,16.81
2023-05-10T06:38:57.191Z,16.94
2023-05-10T06:41:25.028Z,17.11
2023-05-10T06:43:59.703Z,17.25
2023-05-10T06:46:26.954Z,17.38
2023-05-10T06:48:54.027Z,17.33
2023-05-10T06:51:22.407Z,17.54
2023-05-10T06:53:49.379Z,17.62
2023-05-10T06:56:16.480Z,17.66
2023-05-10T06:58:43.689Z,17.69
2023-05-10T07:01:10.900Z,17.50
2023-05-10T07:03:40.954Z,17.45
2023-05-10T07:06:13.341Z,17.54
2023-05-10T07:08:45.692Z,17.70
2023-05-10T07:11:12.752Z,17.89
2023-05-10T07:13:42.506Z,17.94
2023-05-10T07:16:12.346Z,17.86
2023-05-10T07:18:39.483Z,17.72
2023-05-10T07:21:07.227Z,17.73
2023-05-10T07:23:34.395Z,17.83
2023-05-10T07:26:01.306Z,17.71
2023-05-10T07:28:28.220Z,17.57
2023-05-10T07:30:55.352Z,17.57
2023-05-10T07:33:25.771Z,17.44
2023-05-10T07:35:52.968Z,17.27
2023-05-10T07:38:20.015Z,17.25
2023-05-10T07:40:46.975Z,17.15
2023-05-10T07:43:14.282Z,17.03
2023-05-10T07:45:41.189Z,16.97
2023-05-10T07:48:08.200Z,16.99
2023-05-10T07:50:35.353Z,17.18
2023-05-10T07:53:02.462Z,17.25
2023-05-10T07:55:29.314Z,17.29
2023-05-10T07:57:56.608Z,17.39
2023-05-10T08:00:23.453Z,17.41
2023-05-10T08:02:50.632Z,17.33
2023-05-10T08:05:17.956Z,17.23
2023-05-10T08:07:45.155Z,17.13
2023-05-10T08:10:14.933Z,17.15
2023-05-10T08:12:41.835Z,17.03
2023-05-10T08:15:09.324Z,17.00
2023-05-10T08:17:36.265Z,16.93
2023-05-10T08:20:03.352Z,16.83
2023-05-10T08:22:30.257Z,16.68
2023-05-10T08:24:57.148Z,16.67
2023-05-10T08:27:24.318Z,16.56
2023-05-10T08:29:51.191Z,16.38
2023-05-10T08:32:18.617Z,16.32
2023-05-10T08:34:45.979Z,16.29
2023-05-10T08:37:15.767Z,16.17
2023-05-10T08:39:42.793Z,16.28
2023-05-10T08:42:09.762Z,16.56
2023-05-10T08:44:37.607Z,16.92
2023-05-10T08:47:05.850Z,17.20
2023-05-10T08:49:39.408Z,17.38
2023-05-10T08:52:08.575Z,17.69
2023-05-10T08:54:40.427Z,17.78
2023-05-10T08:57:07.334Z,17.99
2023-05-10T08:59:34.366Z,18.16
2023-05-10T09:02:01.523Z,18.36
2023-05-10T09:05:35.043Z,18.32
2023-05-10T09:08:01.909Z,18.46
2023-05-10T09:10:29.450Z,18.45
2023-05-10T09:12:59.190Z,18.38
2023-05-10T09:15:26.629Z,18.14
2023-05-10T09:17:53.668Z,17.80
2023-05-10T09:20:20.771Z,17.56
2023-05-10T09:22:47.774Z,17.46
2023-05-10T09:25:15.507Z,17.29
2023-05-10T09:27:43.531Z,16.87
2023-05-10T09:30:10.929Z,16.49
2023-05-10T09:32:38.010Z,16.20
2023-05-10T09:35:15.567Z,15.87
2023-05-10T09:37:43.744Z,15.52
2023-05-10T09:40:14.703Z,15.30
2023-05-10T09:42:52.008Z,15.21
2023-05-10T09:45:19.194Z,14.95
2023-05-10T09:47:47.109Z,14.94
2023-05-10T09:50:14.084Z,14.95
2023-05-10T09:52:54.571Z,14.96
2023-05-10T09:55:24.889Z,15.17
2023-05-10T09:58:01.234Z,15.16
2023-05-10T10:00:29.735Z,15.23
2023-05-10T10:02:58.269Z,15.28
2023-05-10T10:05:30.870Z,15.44
2023-05-10T10:08:01.132Z,15.44
2023-05-10T10:10:28.144Z,15.43
2023-05-10T10:12:55.286Z,15.47
2023-05-10T10:15:22.981Z,15.56
2023-05-10T10:17:50.334Z,15.62
2023-05-10T10:20:17.645Z,15.56
2023-05-10T10:22:44.855Z,15.36
2023-05-10T10:25:15.410Z,15.36
2023-05-10T10:27:48.678Z,15.36
2023-05-10T10:30:25.267Z,15.39
2023-05-10T10:32:52.166Z,15.51
2023-05-10T10:35:19.096Z,15.61
2023-05-10T10:37:49.409Z,15.63
2023-05-10T10:40:26.314Z,15.72
2023-05-10T10:42:53.223Z,15.77
2023-05-10T10:45:20.395Z,15.87
2023-05-10T10:47:47.391Z,15.97
2023-05-10T10:50:14.507Z,16.08
2023-05-10T10:52:41.920Z,16.15
2023-05-10T10:55:10.416Z,16.34
2023-05-10T10:57:43.801Z,16.45
2023-05-10T11:00:21.477Z,16.56
2023-05-10T11:02:57.304Z,16.72
2023-05-10T11:05:30.376Z,16.79
2023-05-10T11:07:57.904Z,16.82
2023-05-10T11:10:28.400Z,16.85
2023-05-10T11:13:02.280Z,16.82
2023-05-10T11:15:32.794Z,16.86
2023-05-10T11:18:22.050Z,16.88
2023-05-10T11:20:53.154Z,16.97
2023-05-10T11:23:21.094Z,17.01
2023-05-10T11:25:48.762Z,17.19
2023-05-10T11:28:15.685Z,17.41
2023-05-10T11:30:43.123Z,17.47
2023-05-10T11:33:11.315Z,17.55
2023-05-10T11:35:41.066Z,17.65
2023-05-10T11:38:10.478Z,17.74
2023-05-10T11:40:40.438Z,17.64
2023-05-10T11:43:07.505Z,17.65
2023-05-10T11:45:34.637Z,17.68
2023-05-10T11:48:25.365Z,17.57
2023-05-10T11:51:00.149Z,17.63
2023-05-10T11:53:28.113Z,17.50
2023-05-10T11:56:15.758Z,17.58
2023-05-10T11:58:42.734Z,17.47
2023-05-10T12:01:10.454Z,17.32
2023-05-10T12:03:38.055Z,17.52
2023-05-10T12:06:05.033Z,17.57
2023-05-10T12:08:34.796Z,17.32
2023-05-10T12:11:11.146Z,17.26
2023-05-10T12:13:41.628Z,17.29
2023-05-10T12:16:15.869Z,17.39
2023-05-10T12:18:43.897Z,17.43
2023-05-10T12:21:13.112Z,17.42
2023-05-10T12:23:40.369Z,17.35
2023-05-10T12:26:07.352Z,17.35
2023-05-10T12:28:34.331Z,17.34
2023-05-10T12:31:01.413Z,17.29
2023-05-10T12:33:28.541Z,17.31
2023-05-10T12:35:55.728Z,17.25
2023-05-10T12:38:33.134Z,17.24
2023-05-10T12:41:04.103Z,17.16
2023-05-10T12:43:31.341Z,17.13
2023-05-10T12:45:58.559Z,17.12
2023-05-10T12:48:25.674Z,17.11
2023-05-10T12:50:52.452Z,17.12
2023-05-10T12:53:19.471Z,17.23
2023-05-10T12:55:49.158Z,17.13
2023-05-10T12:58:31.584Z,17.11
2023-05-10T13:01:02.727Z,17.12
2023-05-10T13:03:29.720Z,17.24
2023-05-10T13:05:56.576Z,17.26
2023-05-10T13:08:23.572Z,17.24
2023-05-10T13:10:50.572Z,17.23
2023-05-10T13:13:17.643Z,17.28
2023-05-10T13:15:44.744Z,17.34
2023-05-10T13:18:11.829Z,17.35
2023-05-10T13:20:39.152Z,17.40
2023-05-10T13:23:06.685Z,17.40
2023-05-10T13:25:35.624Z,17.43
2023-05-10T13:28:03.007Z,17.53
2023-05-10T13:30:30.191Z,17.72
2023-05-10T13:32:57.270Z,17.82
2023-05-10T13:35:24.345Z,17.89
2023-05-10T13:37:51.187Z,17.74
2023-05-10T13:40:18.433Z,17.58
2023-05-10T13:42:45.718Z,17.16
2023-05-10T13:45:13.398Z,16.89
2023-05-10T13:47:40.400Z,16.51
2023-05-10T13:50:10.308Z,16.03
2023-05-10T13:52:37.389Z,15.54
2023-05-10T13:55:04.738Z,15.20
2023-05-10T13:57:31.765Z,15.00
2023-05-10T14:00:01.732Z,14.74
2023-05-10T14:02:35.876Z,14.59
2023-05-10T14:05:02.908Z,14.45
2023-05-10T14:07:30.777Z,14.50
2023-05-10T14:10:01.033Z,14.57
2023-05-10T14:12:28.464Z,14.58
2023-05-10T14:14:55.565Z,14.38
2023-05-10T14:17:23.565Z,14.03
2023-05-10T14:19:50.874Z,13.86
2023-05-10T14:22:17.823Z,13.83
2023-05-10T14:24:48.186Z,13.76
2023-05-10T14:27:19.269Z,13.79
2023-05-10T14:29:46.097Z,13.74
2023-05-10T14:32:13.168Z,13.74
2023-05-10T14:34:40.259Z,13.63
2023-05-10T14:37:07.463Z,13.58
2023-05-10T14:39:34.934Z,13.58
2023-05-10T14:42:02.609Z,13.62
2023-05-10T14:44:30.126Z,13.71
2023-05-10T14:46:57.544Z,13.78
2023-05-10T14:49:26.788Z,13.89
2023-05-10T14:51:56.895Z,13.99
2023-05-10T14:54:23.726Z,14.00
2023-05-10T14:56:51.113Z,13.98
2023-05-10T14:59:18.896Z,13.96
2023-05-10T15:01:46.419Z,14.17
2023-05-10T15:04:16.579Z,14.07
2023-05-10T15:06:44.829Z,14.08
2023-05-10T15:09:11.937Z,14.15
2023-05-10T15:11:38.986Z,14.24
2023-05-10T15:14:05.965Z,14.34
2023-05-10T15:16:35.627Z,14.43
2023-05-10T15:19:03.267Z,14.40
2023-05-10T15:21:31.903Z,14.40
2023-05-10T15:23:59.155Z,14.49
2023-05-10T15:26:27.498Z,14.66
2023-05-10T15:28:54.283Z,14.79
2023-05-10T15:31:21.149Z,14.69
2023-05-10T15:33:48.057Z,14.66
2023-05-10T15:36:14.852Z,14.63
2023-05-10T15:38:41.653Z,14.68
2023-05-10T15:41:08.629Z,14.76
2023-05-10T15:43:37.271Z,14.87
2023-05-10T15:46:04.353Z,14.86
2023-05-10T15:48:32.471Z,14.96
2023-05-10T15:51:00.882Z,15.03
2023-05-10T15:53:28.157Z,15.13
2023-05-10T15:55:55.269Z,15.24
2023-05-10T15:58:23.506Z,15.26
2023-05-10T16:00:50.508Z,15.31
2023-05-10T16:03:17.320Z,15.31
2023-05-10T16:05:44.152Z,15.35
2023-05-10T16:08:11.071Z,15.39
2023-05-10T16:10:38.203Z,15.37
2023-05-10T16:13:05.121Z,15.31
2023-05-10T16:15:32.039Z,15.18
2023-05-10T16:17:59.157Z,14.98
2023-05-10T16:20:26.664Z,14.95
2023-05-10T16:22:53.480Z,15.03
2023-05-10T16:25:20.570Z,15.03
2023-05-10T16:27:47.488Z,15.04
2023-05-10T16:30:14.516Z,14.98
2023-05-10T16:32:41.465Z,14.90
2023-05-10T16:35:08.689Z,14.85
2023-05-10T16:37:36.050Z,14.84
2023-05-10T16:40:03.225Z,14.79
2023-05-10T16:42:30.639Z,14.77
2023-05-10T16:44:57.635Z,14.75
2023-05-10T16:47:26.977Z,14.66
2023-05-10T16:49:53.953Z,14.56
2023-05-10T16:52:20.802Z,14.55
2023-05-10T16:54:47.731Z,14.50
2023-05-10T16:57:14.580Z,14.41
2023-05-10T16:59:41.530Z,14.34
2023-05-10T17:02:08.597Z,14.32
2023-05-10T17:04:35.639Z,14.24
2023-05-10T17:07:02.399Z,14.17
2023-05-10T17:09:29.192Z,14.13
2023-05-10T17:11:56.051Z,14.17
2023-05-10T17:14:23.267Z,14.06
2023-05-10T17:16:52.922Z,14.03
2023-05-10T17:19:20.032Z,13.97
2023-05-10T17:21:47.060Z,13.91
2023-05-10T17:24:14.121Z,13.80
2023-05-10T17:26:41.316Z,13.75
2023-05-10T17:29:08.423Z,13.71
2023-05-10T17:31:35.358Z,13.70
2023-05-10T17:34:04.714Z,13.64
2023-05-10T17:36:32.744Z,13.55
2023-05-10T17:38:59.697Z,13.52
2023-05-10T17:41:26.544Z,13.49
2023-05-10T17:43:54.003Z,13.53
2023-05-10T17:46:20.896Z,13.52
2023-05-10T17:48:48.044Z,13.41
2023-05-10T17:51:15.515Z,13.36
2023-05-10T17:53:42.475Z,13.31
2023-05-10T17:56:09.777Z,13.13
2023-05-10T17:58:38.506Z,13.04
2023-05-10T18:01:05.860Z,13.01
2023-05-10T18:03:33.997Z,12.93
2023-05-10T18:06:00.870Z,12.85
2023-05-10T18:08:29.030Z,12.87
2023-05-10T18:10:56.214Z,12.86
2023-05-10T18:13:23.104Z,12.81
2023-05-10T18:15:50.282Z,12.79
2023-05-10T18:18:17.735Z,12.81
2023-05-10T18:20:46.367Z,12.75
2023-05-10T18:23:15.342Z,12.67
2023-05-10T18:25:42.616Z,12.54
2023-05-10T18:28:09.566Z,12.46
2023-05-10T18:30:36.414Z,12.40
2023-05-10T18:33:03.694Z,12.36
2023-05-10T18:35:30.549Z,12.30
2023-05-10T18:37:57.390Z,12.29
2023-05-10T18:40:24.884Z,12.33
2023-05-10T18:42:52.343Z,12.23
2023-05-10T18:45:19.523Z,12.18
2023-05-10T18:47:46.627Z,12.16
2023-05-10T18:50:13.501Z,12.05
2023-05-10T18:52:40.450Z,12.04
2023-05-10T18:55:08.583Z,12.18
2023-05-10T18:57:41.802Z,12.16
2023-05-10T19:00:10.564Z,12.13
2023-05-10T19:02:37.802Z,12.14
2023-05-10T19:05:04.781Z,12.13
2023-05-10T19:07:31.791Z,12.11
2023-05-10T19:09:58.689Z,12.11
2023-05-10T19:12:25.548Z,12.12
2023-05-10T19:14:52.463Z,12.12
2023-05-10T19:17:19.232Z,12.11
2023-05-10T19:19:46.168Z,12.02
2023-05-10T19:22:13.460Z,11.86
2023-05-10T19:24:40.363Z,11.84
2023-05-10T19:27:07.383Z,11.67
2023-05-10T19:29:34.288Z,11.66
2023-05-10T19:32:01.116Z,11.59
2023-05-10T19:34:30.062Z,11.54
2023-05-10T19:36:56.919Z,11.49
2023-05-10T19:39:23.690Z,11.48
2023-05-10T19:41:51.272Z,11.51
2023-05-10T19:44:18.275Z,11.52
2023-05-10T19:46:45.219Z,11.42
2023-05-10T19:49:12.033Z,11.28
2023-05-10T19:51:38.867Z,11.30
2023-05-10T19:54:05.735Z,11.27
2023-05-10T19:56:32.469Z,11.25
2023-05-10T19:58:59.717Z,11.25
2023-05-10T20:01:27.019Z,11.27
2023-05-10T20:03:53.972Z,11.34
2023-05-10T20:06:20.920Z,11.44
2023-05-10T20:08:47.675Z,11.41
2023-05-10T20:11:14.462Z,11.41
2023-05-10T20:13:41.259Z,11.50
2023-05-10T20:16:08.150Z,11.57
2023-05-10T20:18:35.073Z,11.57
2023-05-10T20:21:01.936Z,11.66
2023-05-10T20:23:28.948Z,11.71
2023-05-10T20:25:55.901Z,11.67
2023-05-10T20:28:23.404Z,11.66
2023-05-10T20:30:53.832Z,11.53
2023-05-10T20:33:21.299Z,11.43
2023-05-10T20:35:48.168Z,11.42
2023-05-10T20:38:14.970Z,11.39
2023-05-10T20:40:41.956Z,11.29
2023-05-10T20:43:08.793Z,11.20
2023-05-10T20:45:37.445Z,11.26
2023-05-10T20:48:04.793Z,11.26
2023-05-10T20:50:31.670Z,11.04
2023-05-10T20:52:58.459Z,10.97
2023-05-10T20:55:25.293Z,10.95
2023-05-10T20:57:53.033Z,10.95
2023-05-10T21:00:20.171Z,10.95
2023-05-10T21:02:47.334Z,11.01
2023-05-10T21:05:14.493Z,11.04
2023-05-10T21:07:41.545Z,11.07
2023-05-10T21:10:08.807Z,11.09
2023-05-10T21:12:35.879Z,11.01
2023-05-10T21:15:03.305Z,10.95
2023-05-10T21:17:30.173Z,10.88
2023-05-10T21:19:57.005Z,10.90
2023-05-10T21:22:23.826Z,11.00
2023-05-10T21:24:50.642Z,10.96
2023-05-10T21:27:17.470Z,10.95
2023-05-10T21:29:44.367Z,10.94
2023-05-10T21:32:11.274Z,11.00
2023-05-10T21:34:38.361Z,10.82
2023-05-10T21:37:05.265Z,10.91
2023-05-10T21:39:32.133Z,10.93
2023-05-10T21:42:00.693Z,10.85
2023-05-10T21:44:27.519Z,10.74
2023-05-10T21:46:54.667Z,10.79
2023-05-10T21:49:21.617Z,10.85
2023-05-10T21:51:48.754Z,10.73
2023-05-10T21:54:15.569Z,10.63
2023-05-10T21:56:42.465Z,10.55
2023-05-10T21:59:09.301Z,10.50
2023-05-10T22:01:36.205Z,10.39
2023-05-10T22:04:06.343Z,10.28
2023-05-10T22:06:33.175Z,10.18
2023-05-10T22:09:00.051Z,10.24
2023-05-10T22:11:27.634Z,10.12
2023-05-10T22:13:54.416Z,10.10
2023-05-10T22:16:21.387Z,10.15
2023-05-10T22:18:48.451Z,10.18
2023-05-10T22:21:15.354Z,10.11
2023-05-10T22:23:42.187Z,10.06
2023-05-10T22:26:09.020Z,10.18
2023-05-10T22:28:35.889Z,10.24
2023-05-10T22:31:02.808Z,10.23
2023-05-10T22:33:29.773Z,10.24
2023-05-10T22:35:56.501Z,10.22
2023-05-10T22:38:23.290Z,10.22
2023-05-10T22:40:50.444Z,10.19
2023-05-10T22:43:18.138Z,10.13
2023-05-10T22:45:45.004Z,10.11
2023-05-10T22:48:11.978Z,9.95
2023-05-10T22:50:38.842Z,9.76
2023-05-10T22:53:06.706Z,9.68
2023-05-10T22:55:33.561Z,9.73
2023-05-10T22:58:01.231Z,9.81
2023-05-10T23:00:28.017Z,9.86
2023-05-10T23:02:54.957Z,10.01
2023-05-10T23:05:22.519Z,10.07
2023-05-10T23:07:53.269Z,10.16
2023-05-10T23:10:20.331Z,10.05
2023-05-10T23:12:47.282Z,9.92
2023-05-10T23:15:14.063Z,9.93
2023-05-10T23:17:41.177Z,9.85
2023-05-10T23:20:08.855Z,9.78
2023-05-10T23:22:35.749Z,9.79
2023-05-10T23:25:02.565Z,9.84
2023-05-10T23:27:30.222Z,9.87
2023-05-10T23:29:57.494Z,9.90
2023-05-10T23:32:24.494Z,9.94
2023-05-10T23:34:51.305Z,10.08
2023-05-10T23:37:18.224Z,10.03
2023-05-10T23:39:45.118Z,10.05
2023-05-10T23:42:12.021Z,10.02
2023-05-10T23:44:38.850Z,10.12
2023-05-10T23:47:06.245Z,10.13
2023-05-10T23:49:33.163Z,10.18
2023-05-10T23:51:59.985Z,10.17
2023-05-10T23:54:26.825Z,10.13
2023-05-10T23:56:53.570Z,10.11
2023-05-10T23:59:20.366Z,10.10
